createdAt,value
2023-01-19T00:01:40.628Z,96679.00
2023-01-19T00:04:07.161Z,96685.75
2023-01-19T00:06:33.751Z,96687.22
2023-01-19T00:09:00.326Z,96689.16
2023-01-19T00:11:26.898Z,96686.03
2023-01-19T00:13:53.655Z,96695.53
2023-01-19T00:16:21.723Z,96701.09
2023-01-19T00:18:50.321Z,96708.25
2023-01-19T00:21:16.933Z,96709.13
2023-01-19T00:23:43.965Z,96716.00
2023-01-19T00:26:10.997Z,96718.63
2023-01-19T00:28:37.532Z,96713.53
2023-01-19T00:31:04.157Z,96707.28
2023-01-19T00:33:30.883Z,96720.63
2023-01-19T00:35:57.361Z,96728.00
2023-01-19T00:38:24.284Z,96728.22
2023-01-19T00:40:50.800Z,96730.88
2023-01-19T00:43:17.286Z,96736.97
2023-01-19T00:45:43.877Z,96738.09
2023-01-19T00:48:10.379Z,96739.06
2023-01-19T00:50:36.889Z,96749.19
2023-01-19T00:53:03.778Z,96741.53
2023-01-19T00:55:30.983Z,96749.81
2023-01-19T00:57:58.186Z,96744.34
2023-01-19T01:00:24.873Z,96747.38
2023-01-19T01:02:52.100Z,96750.75
2023-01-19T01:05:18.789Z,96749.91
2023-01-19T01:07:45.606Z,96757.06
2023-01-19T01:10:16.435Z,96769.88
2023-01-19T01:12:56.049Z,96774.47
2023-01-19T01:15:24.791Z,96776.50
2023-01-19T01:17:53.038Z,96779.63
2023-01-19T01:20:21.360Z,96791.75
2023-01-19T01:22:49.969Z,96777.78
2023-01-19T01:25:17.371Z,96782.50
2023-01-19T01:27:43.858Z,96790.78
2023-01-19T01:30:11.863Z,96790.69
2023-01-19T01:32:38.391Z,96798.63
2023-01-19T01:35:05.316Z,96803.38
2023-01-19T01:37:31.949Z,96811.22
2023-01-19T01:39:58.705Z,96809.16
2023-01-19T01:42:27.395Z,96805.28
2023-01-19T01:44:58.623Z,96818.00
2023-01-19T01:47:30.770Z,96817.56
2023-01-19T01:50:13.111Z,96800.03
2023-01-19T01:53:06.387Z,96820.28
2023-01-19T01:55:32.273Z,96822.59
2023-01-19T01:58:01.599Z,96822.59
2023-01-19T02:00:28.250Z,96822.38
2023-01-19T02:02:55.206Z,96826.53
2023-01-19T02:05:26.630Z,96822.59
2023-01-19T02:08:26.037Z,96819.63
2023-01-19T02:11:11.030Z,96824.84
2023-01-19T02:13:39.012Z,96823.91
2023-01-19T02:16:08.707Z,96827.34
2023-01-19T02:18:35.255Z,96820.72
2023-01-19T02:21:09.805Z,96823.25
2023-01-19T02:23:46.736Z,96828.09
2023-01-19T02:26:15.986Z,96824.91
2023-01-19T02:28:45.009Z,96830.41
2023-01-19T02:31:11.539Z,96831.78
2023-01-19T02:33:38.076Z,96831.53
2023-01-19T02:36:05.434Z,96828.09
2023-01-19T02:38:31.929Z,96817.38
2023-01-19T02:40:59.251Z,96836.72
2023-01-19T02:43:25.728Z,96841.13
2023-01-19T02:45:52.360Z,96849.34
2023-01-19T02:48:19.103Z,96843.59
2023-01-19T02:50:49.132Z,96848.91
2023-01-19T02:53:18.613Z,96850.06
2023-01-19T02:55:46.871Z,96834.84
2023-01-19T02:58:23.385Z,96853.66
2023-01-19T03:01:00.310Z,96851.44
2023-01-19T03:03:32.859Z,96853.22
2023-01-19T03:06:08.627Z,96837.16
2023-01-19T03:08:43.299Z,96841.44
2023-01-19T03:11:13.161Z,96845.22
2023-01-19T03:13:42.685Z,96848.28
2023-01-19T03:16:30.391Z,96847.44
2023-01-19T03:19:09.990Z,96850.16
2023-01-19T03:21:37.106Z,96843.28
2023-01-19T03:24:04.912Z,96846.03
2023-01-19T03:26:44.146Z,96848.75
2023-01-19T03:29:10.876Z,96847.09
2023-01-19T03:31:37.431Z,96847.09
2023-01-19T03:34:06.720Z,96845.22
2023-01-19T03:36:36.077Z,96834.34
2023-01-19T03:39:03.487Z,96854.31
2023-01-19T03:41:30.311Z,96853.31
2023-01-19T03:43:56.837Z,96849.28
2023-01-19T03:46:23.666Z,96851.00
2023-01-19T03:48:50.300Z,96850.56
2023-01-19T03:51:16.789Z,96849.56
2023-01-19T03:53:43.441Z,96855.03
2023-01-19T03:56:21.650Z,96853.81
2023-01-19T03:58:48.126Z,96851.44
2023-01-19T04:01:15.133Z,96855.53
2023-01-19T04:03:42.302Z,96847.72
2023-01-19T04:06:09.452Z,96843.34
2023-01-19T04:08:36.261Z,96849.97
2023-01-19T04:11:03.645Z,96847.25
2023-01-19T04:13:30.481Z,96851.31
2023-01-19T04:16:03.695Z,96846.59
2023-01-19T04:18:31.956Z,96843.53
2023-01-19T04:21:01.373Z,96854.22
2023-01-19T04:23:28.141Z,96857.69
2023-01-19T04:25:58.803Z,96847.16
2023-01-19T04:28:25.768Z,96850.56
2023-01-19T04:30:52.361Z,96846.75
2023-01-19T04:33:19.446Z,96855.13
2023-01-19T04:35:46.518Z,96842.25
2023-01-19T04:38:13.141Z,96843.22
2023-01-19T04:40:39.609Z,96846.66
2023-01-19T04:43:06.550Z,96840.59
2023-01-19T04:45:33.582Z,96837.31
2023-01-19T04:48:00.648Z,96834.00
2023-01-19T04:50:27.162Z,96839.00
2023-01-19T04:52:53.721Z,96839.59
2023-01-19T04:55:20.193Z,96841.38
2023-01-19T04:57:46.697Z,96833.56
2023-01-19T05:00:13.549Z,96845.06
2023-01-19T05:02:42.108Z,96842.34
2023-01-19T05:05:08.996Z,96841.41
2023-01-19T05:07:35.810Z,96852.53
2023-01-19T05:10:02.437Z,96848.03
2023-01-19T05:12:28.955Z,96853.25
2023-01-19T05:14:55.521Z,96858.00
2023-01-19T05:17:22.032Z,96856.81
2023-01-19T05:19:48.974Z,96865.09
2023-01-19T05:22:15.770Z,96866.75
2023-01-19T05:24:42.248Z,96866.53
2023-01-19T05:27:08.890Z,96876.50
2023-01-19T05:29:35.473Z,96868.75
2023-01-19T05:32:02.003Z,96870.06
2023-01-19T05:34:28.522Z,96875.88
2023-01-19T05:36:55.057Z,96871.50
2023-01-19T05:39:21.615Z,96864.84
2023-01-19T05:41:48.174Z,96878.34
2023-01-19T05:44:14.713Z,96880.81
2023-01-19T05:46:41.333Z,96874.78
2023-01-19T05:49:07.972Z,96887.56
2023-01-19T05:51:37.949Z,96884.66
2023-01-19T05:54:05.368Z,96885.72
2023-01-19T05:56:32.788Z,96896.16
2023-01-19T05:59:00.183Z,96899.56
2023-01-19T06:01:27.140Z,96899.66
2023-01-19T06:03:53.717Z,96901.31
2023-01-19T06:06:20.370Z,96907.72
2023-01-19T06:08:46.895Z,96907.56
2023-01-19T06:11:13.426Z,96905.31
2023-01-19T06:13:41.969Z,96913.59
2023-01-19T06:16:08.701Z,96915.16
2023-01-19T06:18:35.246Z,96919.06
2023-01-19T06:21:06.346Z,96920.25
2023-01-19T06:23:33.338Z,96922.03
2023-01-19T06:25:59.853Z,96930.53
2023-01-19T06:28:26.437Z,96936.00
2023-01-19T06:30:53.528Z,96937.03
2023-01-19T06:33:20.041Z,96941.56
2023-01-19T06:35:47.640Z,96944.75
2023-01-19T06:38:14.335Z,96945.81
2023-01-19T06:40:41.224Z,96954.78
2023-01-19T06:43:08.041Z,96946.34
2023-01-19T06:45:34.590Z,96954.28
2023-01-19T06:48:01.254Z,96964.22
2023-01-19T06:50:27.886Z,96975.84
2023-01-19T06:52:54.440Z,96979.66
2023-01-19T06:55:20.909Z,96975.09
2023-01-19T06:57:56.554Z,96983.91
2023-01-19T07:00:24.249Z,96983.78
2023-01-19T07:02:50.782Z,96987.16
2023-01-19T07:05:17.473Z,97004.63
2023-01-19T07:07:44.911Z,97000.50
2023-01-19T07:10:12.068Z,97004.59
2023-01-19T07:12:39.064Z,97009.56
2023-01-19T07:15:06.727Z,97012.25
2023-01-19T07:17:33.558Z,97012.81
2023-01-19T07:20:00.106Z,97022.72
2023-01-19T07:22:26.606Z,97023.16
2023-01-19T07:24:53.100Z,97018.66
2023-01-19T07:27:19.667Z,97022.25
2023-01-19T07:29:46.191Z,97012.28
2023-01-19T07:32:12.812Z,97030.22
2023-01-19T07:34:39.328Z,97033.09
2023-01-19T07:37:05.848Z,97034.97
2023-01-19T07:39:32.330Z,97036.53
2023-01-19T07:41:58.917Z,97038.22
2023-01-19T07:44:25.394Z,97040.50
2023-01-19T07:46:51.877Z,97044.28
2023-01-19T07:49:18.411Z,97037.41
2023-01-19T07:51:44.898Z,97036.94
2023-01-19T07:54:12.146Z,97043.84
2023-01-19T07:56:38.678Z,97051.25
2023-01-19T07:59:07.319Z,97040.59
2023-01-19T08:01:33.934Z,97045.59
2023-01-19T08:04:00.625Z,97047.50
2023-01-19T08:06:30.264Z,97047.03
2023-01-19T08:08:56.733Z,97047.53
2023-01-19T08:11:23.279Z,97045.03
2023-01-19T08:13:49.854Z,97053.69
2023-01-19T08:16:16.385Z,97051.78
2023-01-19T08:18:43.051Z,97056.66
2023-01-19T08:21:09.622Z,97057.53
2023-01-19T08:23:36.115Z,97061.59
2023-01-19T08:26:02.956Z,97057.28
2023-01-19T08:28:29.437Z,97059.91
2023-01-19T08:30:56.104Z,97054.25
2023-01-19T08:33:23.249Z,97060.88
2023-01-19T08:35:51.518Z,97062.06
2023-01-19T08:38:18.147Z,97063.19
2023-01-19T08:40:44.784Z,97057.34
2023-01-19T08:43:13.191Z,97063.78
2023-01-19T08:45:42.384Z,97056.53
2023-01-19T08:48:09.995Z,97058.53
2023-01-19T08:50:36.494Z,97064.97
2023-01-19T08:53:03.683Z,97065.53
2023-01-19T08:55:30.497Z,97062.06
2023-01-19T08:57:58.007Z,97062.09
2023-01-19T09:00:27.455Z,97056.41
2023-01-19T09:02:54.507Z,97066.63
2023-01-19T09:05:21.081Z,97070.03
2023-01-19T09:07:54.287Z,97073.94
2023-01-19T09:10:20.839Z,97067.28
2023-01-19T09:12:47.320Z,97074.44
2023-01-19T09:15:14.969Z,97077.63
2023-01-19T09:17:44.504Z,97077.97
2023-01-19T09:20:11.168Z,97081.06
2023-01-19T09:22:39.555Z,97084.41
2023-01-19T09:25:07.538Z,97084.19
2023-01-19T09:27:34.753Z,97078.09
2023-01-19T09:30:01.214Z,97084.34
2023-01-19T09:32:27.785Z,97081.31
2023-01-19T09:34:55.061Z,97088.19
2023-01-19T09:37:21.537Z,97089.41
2023-01-19T09:39:48.410Z,97091.56
2023-01-19T09:42:32.958Z,97093.09
2023-01-19T09:44:59.541Z,97090.13
2023-01-19T09:47:28.210Z,97090.13
2023-01-19T09:50:03.216Z,97088.00
2023-01-19T09:52:31.480Z,97086.31
2023-01-19T09:54:58.172Z,97089.19
2023-01-19T09:57:25.381Z,97073.84
2023-01-19T09:59:51.917Z,97079.88
2023-01-19T10:02:57.097Z,97082.47
2023-01-19T10:05:37.316Z,97075.81
2023-01-19T10:08:30.304Z,97084.59
2023-01-19T10:10:57.453Z,97085.91
2023-01-19T10:13:34.555Z,97077.34
2023-01-19T10:16:10.157Z,97082.44
2023-01-19T10:18:45.853Z,97081.94
2023-01-19T10:21:15.415Z,97076.19
2023-01-19T10:23:51.105Z,97079.44
2023-01-19T10:26:33.985Z,97072.16
2023-01-19T10:29:35.303Z,97072.84
2023-01-19T10:32:21.117Z,97062.38
2023-01-19T10:34:49.198Z,97070.72
2023-01-19T10:37:27.704Z,97057.41
2023-01-19T10:39:56.858Z,97066.47
2023-01-19T10:42:23.423Z,97066.81
2023-01-19T10:44:50.143Z,97063.06
2023-01-19T10:47:18.460Z,97065.94
2023-01-19T10:49:45.136Z,97063.47
2023-01-19T10:52:28.953Z,97062.81
2023-01-19T10:54:55.493Z,97063.41
2023-01-19T10:57:30.645Z,97062.06
2023-01-19T10:59:57.242Z,97062.97
2023-01-19T11:02:28.135Z,97051.66
2023-01-19T11:04:59.066Z,97048.91
2023-01-19T11:07:43.889Z,97059.38
2023-01-19T11:10:33.681Z,97056.19
2023-01-19T11:13:12.517Z,97047.63
2023-01-19T11:15:42.008Z,97051.09
2023-01-19T11:18:08.494Z,97053.97
2023-01-19T11:20:49.043Z,97048.53
2023-01-19T11:23:25.921Z,97051.69
2023-01-19T11:25:52.685Z,97045.25
2023-01-19T11:28:20.659Z,97030.56
2023-01-19T11:31:00.372Z,97046.78
2023-01-19T11:33:33.821Z,97033.13
2023-01-19T11:36:05.559Z,97039.81
2023-01-19T11:38:32.169Z,97035.69
2023-01-19T11:40:59.036Z,97040.69
2023-01-19T11:43:39.849Z,97030.72
2023-01-19T11:46:14.694Z,97030.47
2023-01-19T11:49:01.128Z,97031.44
2023-01-19T11:52:02.292Z,97025.88
2023-01-19T11:54:36.111Z,97016.94
2023-01-19T11:57:02.974Z,97019.41
2023-01-19T11:59:29.583Z,97021.09
2023-01-19T12:01:57.921Z,97012.53
2023-01-19T12:04:33.375Z,97018.34
2023-01-19T12:07:05.050Z,97021.06
2023-01-19T12:09:35.050Z,97015.56
2023-01-19T12:12:04.047Z,97013.50
2023-01-19T12:14:52.376Z,97009.34
2023-01-19T12:17:30.674Z,97000.91
2023-01-19T12:20:15.966Z,97005.34
2023-01-19T12:22:49.368Z,96998.44
2023-01-19T12:25:25.468Z,97005.06
2023-01-19T12:27:51.949Z,96997.19
2023-01-19T12:30:18.428Z,96995.38
2023-01-19T12:32:44.945Z,97000.91
2023-01-19T12:35:49.006Z,96996.94
2023-01-19T12:38:33.762Z,96989.56
2023-01-19T12:41:25.022Z,96990.13
2023-01-19T12:44:09.704Z,96993.72
2023-01-19T12:47:07.547Z,96989.84
2023-01-19T12:49:42.708Z,96991.50
2023-01-19T12:52:20.059Z,96988.47
2023-01-19T12:55:06.933Z,96989.31
2023-01-19T12:57:38.769Z,96988.97
2023-01-19T13:00:29.578Z,96991.47
2023-01-19T13:03:00.217Z,96985.44
2023-01-19T13:05:33.577Z,96983.06
2023-01-19T13:08:03.012Z,96977.16
2023-01-19T13:10:55.988Z,96982.53
2023-01-19T13:13:37.599Z,96981.28
2023-01-19T13:16:19.165Z,96981.59
2023-01-19T13:18:52.614Z,96987.38
2023-01-19T13:21:27.387Z,96977.16
2023-01-19T13:23:55.723Z,96971.50
2023-01-19T13:26:23.739Z,96979.63
2023-01-19T13:28:52.419Z,96980.44
2023-01-19T13:31:19.081Z,96983.47
2023-01-19T13:33:55.562Z,96990.09
2023-01-19T13:36:35.552Z,96993.66
2023-01-19T13:39:04.029Z,96987.31
2023-01-19T13:41:32.670Z,96985.91
2023-01-19T13:44:04.975Z,96993.94
2023-01-19T13:46:31.560Z,96995.16
2023-01-19T13:49:06.098Z,97004.13
2023-01-19T13:51:32.577Z,97002.72
2023-01-19T13:54:01.449Z,97007.75
2023-01-19T13:56:31.265Z,97012.19
2023-01-19T13:59:11.670Z,97003.47
2023-01-19T14:01:40.021Z,97015.16
2023-01-19T14:04:06.756Z,97007.97
2023-01-19T14:06:38.653Z,97015.09
2023-01-19T14:09:09.467Z,97017.56
2023-01-19T14:11:36.011Z,97015.88
2023-01-19T14:14:02.909Z,96987.75
2023-01-19T14:16:29.515Z,97019.22
2023-01-19T14:19:00.633Z,97022.91
2023-01-19T14:21:39.897Z,97020.91
2023-01-19T14:24:08.475Z,97024.19
2023-01-19T14:26:38.101Z,97022.53
2023-01-19T14:29:31.755Z,97018.50
2023-01-19T14:32:18.375Z,97018.50
2023-01-19T14:34:52.012Z,97010.22
2023-01-19T14:37:24.642Z,97023.06
2023-01-19T14:39:58.990Z,97023.16
2023-01-19T14:42:27.938Z,97016.66
2023-01-19T14:44:55.374Z,97006.66
2023-01-19T14:47:36.066Z,97014.66
2023-01-19T14:50:09.325Z,97028.97
2023-01-19T14:52:40.745Z,97025.84
2023-01-19T14:55:16.520Z,97023.50
2023-01-19T14:57:43.083Z,97031.47
2023-01-19T15:00:17.379Z,97028.72
2023-01-19T15:02:44.961Z,97031.78
2023-01-19T15:05:11.650Z,97031.41
2023-01-19T15:07:39.065Z,97043.41
2023-01-19T15:10:07.133Z,97031.78
2023-01-19T15:12:33.606Z,97042.75
2023-01-19T15:15:00.326Z,97044.56
2023-01-19T15:17:26.951Z,97048.56
2023-01-19T15:19:54.238Z,97053.63
2023-01-19T15:22:22.393Z,97036.50
2023-01-19T15:24:49.714Z,97040.63
2023-01-19T15:27:16.466Z,97032.47
2023-01-19T15:29:42.979Z,97030.38
2023-01-19T15:32:13.257Z,97042.53
2023-01-19T15:34:39.858Z,97033.00
2023-01-19T15:37:06.335Z,97038.16
2023-01-19T15:39:32.910Z,97045.59
2023-01-19T15:41:59.388Z,97035.31
2023-01-19T15:44:25.944Z,97050.25
2023-01-19T15:47:08.710Z,97053.81
2023-01-19T15:49:35.199Z,97058.47
2023-01-19T15:52:01.665Z,97045.59
2023-01-19T15:54:28.720Z,97056.53
2023-01-19T15:56:55.261Z,97054.97
2023-01-19T15:59:23.601Z,97054.44
2023-01-19T16:01:50.761Z,97052.78
2023-01-19T16:04:18.164Z,97054.28
2023-01-19T16:06:44.806Z,97061.44
2023-01-19T16:09:16.707Z,97062.84
2023-01-19T16:11:43.233Z,97061.19
2023-01-19T16:14:09.753Z,97062.84
2023-01-19T16:16:36.405Z,97055.94
2023-01-19T16:19:02.951Z,97063.09
2023-01-19T16:21:29.450Z,97062.38
2023-01-19T16:23:55.999Z,97064.44
2023-01-19T16:26:26.756Z,97061.13
2023-01-19T16:28:56.474Z,97067.97
2023-01-19T16:31:23.124Z,97070.13
2023-01-19T16:33:49.662Z,97079.75
2023-01-19T16:36:26.424Z,97074.91
2023-01-19T16:38:53.268Z,97072.53
2023-01-19T16:41:20.095Z,97063.41
2023-01-19T16:43:51.840Z,97072.78
2023-01-19T16:46:20.551Z,97070.38
2023-01-19T16:48:47.101Z,97081.09
2023-01-19T16:51:13.681Z,97079.19
2023-01-19T16:53:40.210Z,97079.19
2023-01-19T16:56:07.877Z,97077.03
2023-01-19T16:58:34.638Z,97085.34
2023-01-19T17:01:05.483Z,97083.91
2023-01-19T17:03:31.982Z,97081.81
2023-01-19T17:05:58.503Z,97085.84
2023-01-19T17:08:25.000Z,97078.09
2023-01-19T17:10:51.499Z,97081.34
2023-01-19T17:13:18.192Z,97066.63
2023-01-19T17:15:44.757Z,97087.88
2023-01-19T17:18:11.280Z,97085.84
2023-01-19T17:20:38.058Z,97088.31
2023-01-19T17:23:04.546Z,97090.81
2023-01-19T17:25:31.084Z,97081.66
2023-01-19T17:28:00.270Z,97087.59
2023-01-19T17:30:27.067Z,97093.81
2023-01-19T17:32:53.645Z,97088.50
2023-01-19T17:35:20.173Z,97098.13
2023-01-19T17:37:46.657Z,97100.06
2023-01-19T17:40:13.529Z,97096.47
2023-01-19T17:42:41.569Z,97101.19
2023-01-19T17:45:08.763Z,97083.75
2023-01-19T17:47:35.247Z,97100.38
2023-01-19T17:50:01.755Z,97098.47
2023-01-19T17:52:28.272Z,97100.13
2023-01-19T17:54:54.815Z,97113.00
2023-01-19T17:57:21.314Z,97102.31
2023-01-19T17:59:47.889Z,97110.84
2023-01-19T18:02:14.537Z,97109.69
2023-01-19T18:04:41.705Z,97113.25
2023-01-19T18:07:08.180Z,97102.44
2023-01-19T18:09:34.638Z,97116.97
2023-01-19T18:12:01.315Z,97115.31
2023-01-19T18:14:27.840Z,97113.25
2023-01-19T18:16:54.324Z,97114.66
2023-01-19T18:19:22.397Z,97110.84
2023-01-19T18:21:48.960Z,97107.78
2023-01-19T18:24:15.520Z,97115.75
2023-01-19T18:26:42.740Z,97106.34
2023-01-19T18:29:09.459Z,97104.69
2023-01-19T18:31:35.996Z,97109.84
2023-01-19T18:34:02.563Z,97109.59
2023-01-19T18:36:31.863Z,97113.50
2023-01-19T18:38:58.456Z,97111.84
2023-01-19T18:41:25.054Z,97109.44
2023-01-19T18:43:53.500Z,97118.00
2023-01-19T18:46:21.158Z,97108.88
2023-01-19T18:48:47.785Z,97119.91
2023-01-19T18:51:14.904Z,97116.59
2023-01-19T18:53:41.535Z,97118.25
2023-01-19T18:56:08.615Z,97110.84
2023-01-19T18:58:36.913Z,97109.31
2023-01-19T19:01:03.660Z,97112.78
2023-01-19T19:03:30.253Z,97113.84
2023-01-19T19:05:56.871Z,97113.59
2023-01-19T19:08:23.564Z,97106.19
2023-01-19T19:10:50.373Z,97113.59
2023-01-19T19:13:17.624Z,97113.97
2023-01-19T19:15:44.408Z,97117.03
2023-01-19T19:18:13.953Z,97118.47
2023-01-19T19:20:42.013Z,97112.31
2023-01-19T19:23:08.570Z,97111.72
2023-01-19T19:25:35.130Z,97112.09
2023-01-19T19:28:01.607Z,97120.31
2023-01-19T19:30:28.262Z,97112.84
2023-01-19T19:32:57.159Z,97115.94
2023-01-19T19:35:23.870Z,97122.69
2023-01-19T19:37:51.450Z,97119.38
2023-01-19T19:40:18.122Z,97117.94
2023-01-19T19:42:44.641Z,97121.41
2023-01-19T19:45:11.879Z,97112.09
2023-01-19T19:47:38.388Z,97123.75
2023-01-19T19:50:05.056Z,97099.28
2023-01-19T19:52:31.975Z,97123.16
2023-01-19T19:54:58.671Z,97108.91
2023-01-19T19:57:25.293Z,97120.81
2023-01-19T19:59:52.253Z,97123.75
2023-01-19T20:02:18.953Z,97124.47
2023-01-19T20:04:45.710Z,97133.03
2023-01-19T20:07:12.271Z,97130.41
2023-01-19T20:09:38.886Z,97135.09
2023-01-19T20:12:05.635Z,97136.25
2023-01-19T20:14:32.136Z,97132.94
2023-01-19T20:16:59.105Z,97138.75
2023-01-19T20:19:25.695Z,97140.66
2023-01-19T20:21:52.251Z,97141.97
2023-01-19T20:24:19.705Z,97145.56
2023-01-19T20:26:48.294Z,97150.56
2023-01-19T20:29:14.954Z,97145.22
2023-01-19T20:31:49.756Z,97145.44
2023-01-19T20:34:17.202Z,97149.28
2023-01-19T20:36:46.763Z,97155.38
2023-01-19T20:39:13.281Z,97152.63
2023-01-19T20:41:43.657Z,97157.38
2023-01-19T20:44:15.016Z,97161.91
2023-01-19T20:46:41.531Z,97140.97
2023-01-19T20:49:08.045Z,97153.81
2023-01-19T20:51:35.964Z,97157.72
2023-01-19T20:54:02.485Z,97160.34
2023-01-19T20:56:29.088Z,97150.25
2023-01-19T20:58:55.666Z,97153.19
2023-01-19T21:01:23.782Z,97151.41
2023-01-19T21:03:50.662Z,97150.47
2023-01-19T21:06:17.733Z,97150.47
2023-01-19T21:08:44.277Z,97153.56
2023-01-19T21:11:11.171Z,97152.88
2023-01-19T21:13:37.696Z,97154.75
2023-01-19T21:16:04.525Z,97152.63
2023-01-19T21:18:31.218Z,97157.00
2023-01-19T21:20:58.037Z,97164.28
2023-01-19T21:23:25.518Z,97168.78
2023-01-19T21:25:52.999Z,97155.50
2023-01-19T21:28:19.746Z,97164.03
2023-01-19T21:30:46.311Z,97158.56
2023-01-19T21:33:12.935Z,97153.69
2023-01-19T21:35:39.538Z,97165.22
2023-01-19T21:38:06.142Z,97168.19
2023-01-19T21:40:32.676Z,97163.56
2023-01-19T21:42:59.206Z,97161.41
2023-01-19T21:45:25.687Z,97163.31
2023-01-19T21:47:52.197Z,97172.94
2023-01-19T21:50:19.528Z,97168.19
2023-01-19T21:52:46.016Z,97155.94
2023-01-19T21:55:12.797Z,97158.31
2023-01-19T21:57:39.445Z,97162.00
2023-01-19T22:00:06.698Z,97164.75
2023-01-19T22:02:38.542Z,97165.47
2023-01-19T22:05:06.574Z,97161.41
2023-01-19T22:07:33.149Z,97169.50
2023-01-19T22:09:59.699Z,97175.22
2023-01-19T22:12:26.259Z,97163.53
2023-01-19T22:14:52.788Z,97157.50
2023-01-19T22:17:19.314Z,97157.72
2023-01-19T22:19:45.961Z,97166.88
2023-01-19T22:22:12.534Z,97170.19
2023-01-19T22:24:39.464Z,97161.41
2023-01-19T22:27:06.034Z,97167.38
2023-01-19T22:29:32.511Z,97163.53
2023-01-19T22:31:58.981Z,97163.53
2023-01-19T22:34:25.671Z,97161.88
2023-01-19T22:36:52.201Z,97158.91
2023-01-19T22:39:18.705Z,97163.09
2023-01-19T22:41:46.204Z,97161.88
2023-01-19T22:44:17.316Z,97168.06
2023-01-19T22:46:43.857Z,97169.38
2023-01-19T22:49:12.303Z,97171.50
2023-01-19T22:51:38.799Z,97173.78
2023-01-19T22:54:05.378Z,97166.88
2023-01-19T22:56:33.414Z,97171.63
2023-01-19T22:59:00.236Z,97161.91
2023-01-19T23:01:33.298Z,97178.78
2023-01-19T23:04:00.570Z,97190.19
2023-01-19T23:06:28.621Z,97189.97
2023-01-19T23:08:56.120Z,97186.47
2023-01-19T23:11:27.367Z,97190.19
2023-01-19T23:13:53.928Z,97194.72
2023-01-19T23:16:20.625Z,97199.94
2023-01-19T23:18:47.256Z,97195.53
2023-01-19T23:21:15.800Z,97202.31
2023-01-19T23:23:43.084Z,97195.78
2023-01-19T23:26:14.416Z,97199.22
2023-01-19T23:28:41.148Z,97202.09
2023-01-19T23:31:17.479Z,97202.78
2023-01-19T23:33:44.236Z,97204.91
2023-01-19T23:36:11.795Z,97204.44
2023-01-19T23:38:38.472Z,97195.78
2023-01-19T23:41:05.144Z,97202.78
2023-01-19T23:43:31.614Z,97203.75
2023-01-19T23:46:03.214Z,97205.66
2023-01-19T23:48:29.754Z,97203.59
2023-01-19T23:50:56.264Z,97206.09
2023-01-19T23:53:22.777Z,97200.66
2023-01-19T23:55:49.402Z,97199.56
2023-01-19T23:58:15.983Z,97194.47
